createdAt,value
2018-09-04T00:00:00.039Z,20.4
2018-09-04T00:01:01.446Z,20.4
2018-09-04T00:02:02.897Z,20.3
2018-09-04T00:03:04.349Z,20.4
2018-09-04T00:04:05.850Z,20.4
2018-09-04T00:05:07.142Z,20.3
2018-09-04T00:06:08.559Z,20.2
2018-09-04T00:07:09.999Z,20.3
2018-09-04T00:08:11.435Z,20.4
2018-09-04T00:09:12.871Z,20.2
2018-09-04T00:10:14.313Z,20.3
2018-09-04T00:11:15.764Z,20.2
2018-09-04T00:12:17.178Z,20.2
2018-09-04T00:13:18.603Z,20.3
2018-09-04T00:14:20.091Z,20.3
2018-09-04T00:15:21.488Z,20.2
2018-09-04T00:16:22.908Z,20.3
2018-09-04T00:17:24.384Z,20.3
2018-09-04T00:18:25.808Z,20.3
2018-09-04T00:19:27.202Z,20.3
2018-09-04T00:20:28.643Z,20.3
2018-09-04T00:21:30.040Z,20.3
2018-09-04T00:22:31.453Z,20.3
2018-09-04T00:23:32.843Z,20.3
2018-09-04T00:24:34.249Z,20.3
2018-09-04T00:25:35.691Z,20.3
2018-09-04T00:26:37.135Z,20.3
2018-09-04T00:27:38.606Z,20.3
2018-09-04T00:28:40.099Z,20.2
2018-09-04T00:29:41.492Z,20.3
2018-09-04T00:30:42.891Z,20.3
2018-09-04T00:31:44.286Z,20.4
2018-09-04T00:32:45.722Z,20.3
2018-09-04T00:33:47.115Z,20.3
2018-09-04T00:34:48.564Z,20.3
2018-09-04T00:35:49.970Z,20.3
2018-09-04T00:36:51.397Z,20.4
2018-09-04T00:37:52.972Z,20.4
2018-09-04T00:38:54.404Z,20.3
2018-09-04T00:39:55.802Z,20.4
2018-09-04T00:40:57.255Z,20.4
2018-09-04T00:41:58.825Z,20.4
2018-09-04T00:43:00.294Z,20.4
2018-09-04T00:44:01.714Z,20.4
2018-09-04T00:45:03.139Z,20.4
2018-09-04T00:46:04.515Z,20.4
2018-09-04T00:47:06.075Z,20.4
2018-09-04T00:48:07.646Z,20.3
2018-09-04T00:49:09.045Z,20.3
2018-09-04T00:50:10.444Z,20.3
2018-09-04T00:51:11.893Z,20.2
2018-09-04T00:52:13.322Z,20.3
2018-09-04T00:53:14.779Z,20.2
2018-09-04T00:54:16.172Z,20.2
2018-09-04T00:55:17.580Z,20.2
2018-09-04T00:56:18.973Z,20.4
2018-09-04T00:57:20.403Z,20.3
2018-09-04T00:58:21.822Z,20.4
2018-09-04T00:59:23.239Z,20.2
2018-09-04T01:00:24.633Z,20.3
2018-09-04T01:01:26.034Z,20.4
2018-09-04T01:02:27.491Z,20.3
2018-09-04T01:03:28.983Z,20.3
2018-09-04T01:04:30.471Z,20.3
2018-09-04T01:05:31.860Z,20.3
2018-09-04T01:06:33.292Z,20.3
2018-09-04T01:07:34.706Z,20.3
2018-09-04T01:08:36.175Z,20.3
2018-09-04T01:09:37.568Z,20.4
2018-09-04T01:10:39.130Z,20.2
2018-09-04T01:11:40.573Z,20.3
2018-09-04T01:12:42.051Z,20.3
2018-09-04T01:13:43.543Z,20.2
2018-09-04T01:14:44.989Z,20.3
2018-09-04T01:15:46.465Z,20.3
2018-09-04T01:16:47.870Z,20.3
2018-09-04T01:17:49.304Z,20.3
2018-09-04T01:18:50.715Z,20.2
2018-09-04T01:19:52.186Z,20.2
2018-09-04T01:20:53.646Z,20.3
2018-09-04T01:21:55.089Z,20.3
2018-09-04T01:22:56.582Z,20.2
2018-09-04T01:23:58.054Z,20.2
2018-09-04T01:24:59.450Z,20.2
2018-09-04T01:26:00.848Z,20.2
2018-09-04T01:27:02.280Z,20.1
2018-09-04T01:28:03.673Z,20.1
2018-09-04T01:29:05.074Z,20.1
2018-09-04T01:30:06.523Z,20.0
2018-09-04T01:31:08.002Z,20.1
2018-09-04T01:32:09.485Z,20.1
2018-09-04T01:33:10.887Z,20.0
2018-09-04T01:34:12.339Z,20.0
2018-09-04T01:35:13.736Z,20.0
2018-09-04T01:36:15.226Z,20.1
2018-09-04T01:37:16.660Z,20.0
2018-09-04T01:38:18.071Z,20.0
2018-09-04T01:39:19.514Z,20.0
2018-09-04T01:40:20.949Z,20.0
2018-09-04T01:41:22.355Z,20.1
2018-09-04T01:42:23.760Z,20.0
2018-09-04T01:43:25.185Z,20.0
2018-09-04T01:44:26.659Z,20.0
2018-09-04T01:45:28.053Z,20.0
2018-09-04T01:46:29.495Z,19.9
2018-09-04T01:47:30.884Z,20.0
2018-09-04T01:48:32.344Z,20.0
2018-09-04T01:49:33.836Z,19.9
2018-09-04T01:50:35.219Z,19.9
2018-09-04T01:51:36.591Z,20.0
2018-09-04T01:52:38.022Z,19.9
2018-09-04T01:53:39.415Z,19.9
2018-09-04T01:54:40.811Z,19.9
2018-09-04T01:55:42.258Z,19.9
2018-09-04T01:56:43.648Z,19.8
2018-09-04T01:57:45.112Z,19.9
2018-09-04T01:58:46.501Z,19.8
2018-09-04T01:59:47.917Z,19.8
2018-09-04T02:00:49.351Z,19.9
2018-09-04T02:01:50.832Z,19.8
2018-09-04T02:02:52.271Z,19.8
2018-09-04T02:03:53.739Z,19.7
2018-09-04T02:04:55.255Z,19.6
2018-09-04T02:05:56.761Z,19.7
2018-09-04T02:06:58.260Z,19.7
2018-09-04T02:07:59.696Z,19.6
2018-09-04T02:09:01.115Z,19.6
2018-09-04T02:10:02.514Z,19.6
2018-09-04T02:11:04.014Z,19.5
2018-09-04T02:12:05.435Z,19.6
2018-09-04T02:13:06.881Z,19.6
2018-09-04T02:14:08.234Z,19.6
2018-09-04T02:15:09.648Z,19.6
2018-09-04T02:16:11.044Z,19.6
2018-09-04T02:17:12.465Z,19.6
2018-09-04T02:18:13.931Z,19.4
2018-09-04T02:19:15.416Z,19.6
2018-09-04T02:20:16.842Z,19.6
2018-09-04T02:21:18.265Z,19.4
2018-09-04T02:22:19.695Z,19.6
2018-09-04T02:23:21.182Z,19.5
2018-09-04T02:24:22.596Z,19.5
2018-09-04T02:25:24.034Z,19.5
2018-09-04T02:26:25.472Z,19.6
2018-09-04T02:27:26.862Z,19.5
2018-09-04T02:28:28.264Z,19.5
2018-09-04T02:29:29.654Z,19.4
2018-09-04T02:30:31.125Z,19.4
2018-09-04T02:31:32.592Z,19.4
2018-09-04T02:32:34.057Z,19.5
2018-09-04T02:33:35.521Z,19.5
2018-09-04T02:34:36.925Z,19.5
2018-09-04T02:35:38.359Z,19.4
2018-09-04T02:36:39.904Z,19.4
2018-09-04T02:37:41.342Z,19.4
2018-09-04T02:38:42.806Z,19.5
2018-09-04T02:39:44.265Z,19.4
2018-09-04T02:40:45.661Z,19.5
2018-09-04T02:41:47.049Z,19.5
2018-09-04T02:42:48.499Z,19.4
2018-09-04T02:43:49.949Z,19.5
2018-09-04T02:44:51.356Z,19.5
2018-09-04T02:45:52.761Z,19.4
2018-09-04T02:46:54.241Z,19.4
2018-09-04T02:47:56.045Z,19.5
2018-09-04T02:48:57.491Z,19.5
2018-09-04T02:49:58.944Z,19.5
2018-09-04T02:51:00.380Z,19.5
2018-09-04T02:52:01.795Z,19.5
2018-09-04T02:53:03.242Z,19.5
2018-09-04T02:54:04.705Z,19.5
2018-09-04T02:55:06.155Z,19.5
2018-09-04T02:56:07.518Z,19.5
2018-09-04T02:57:08.990Z,19.6
2018-09-04T02:58:10.413Z,19.6
2018-09-04T02:59:11.814Z,19.5
2018-09-04T03:00:13.267Z,19.6
2018-09-04T03:01:14.698Z,19.6
2018-09-04T03:02:16.125Z,19.6
2018-09-04T03:03:17.604Z,19.6
2018-09-04T03:04:19.048Z,19.6
2018-09-04T03:05:20.511Z,19.6
2018-09-04T03:06:21.904Z,19.6
2018-09-04T03:07:23.304Z,19.7
2018-09-04T03:08:24.749Z,19.6
2018-09-04T03:09:26.212Z,19.7
2018-09-04T03:10:27.668Z,19.6
2018-09-04T03:11:29.063Z,19.5
2018-09-04T03:12:30.526Z,19.6
2018-09-04T03:13:32.023Z,19.6
2018-09-04T03:14:33.385Z,19.6
2018-09-04T03:15:34.776Z,19.6
2018-09-04T03:16:36.169Z,19.5
2018-09-04T03:17:37.665Z,19.5
2018-09-04T03:18:39.075Z,19.6
2018-09-04T03:19:40.473Z,19.6
2018-09-04T03:20:41.861Z,19.5
2018-09-04T03:21:43.267Z,19.5
2018-09-04T03:22:44.746Z,19.5
2018-09-04T03:23:46.170Z,19.5
2018-09-04T03:24:47.661Z,19.4
2018-09-04T03:25:49.074Z,19.5
2018-09-04T03:26:50.480Z,19.4
2018-09-04T03:27:51.951Z,19.4
2018-09-04T03:28:53.351Z,19.4
2018-09-04T03:29:54.788Z,19.5
2018-09-04T03:30:56.214Z,19.4
2018-09-04T03:31:57.825Z,19.4
2018-09-04T03:32:59.238Z,19.3
2018-09-04T03:34:00.726Z,19.4
2018-09-04T03:35:02.170Z,19.3
2018-09-04T03:36:03.622Z,19.3
2018-09-04T03:37:05.101Z,19.3
2018-09-04T03:38:06.523Z,19.3
2018-09-04T03:39:07.979Z,19.4
2018-09-04T03:40:09.376Z,19.2
2018-09-04T03:41:10.786Z,19.3
2018-09-04T03:42:12.320Z,19.2
2018-09-04T03:43:13.665Z,19.2
2018-09-04T03:44:15.172Z,19.2
2018-09-04T03:45:16.455Z,19.1
2018-09-04T03:46:17.929Z,19.1
2018-09-04T03:47:19.344Z,19.0
2018-09-04T03:48:20.783Z,19.1
2018-09-04T03:49:22.241Z,19.0
2018-09-04T03:50:23.665Z,19.0
2018-09-04T03:51:25.030Z,19.1
2018-09-04T03:52:26.545Z,18.9
2018-09-04T03:53:27.961Z,18.9
2018-09-04T03:54:29.341Z,18.9
2018-09-04T03:55:30.740Z,18.9
2018-09-04T03:56:32.128Z,18.9
2018-09-04T03:57:33.549Z,18.9
2018-09-04T03:58:34.947Z,18.9
2018-09-04T03:59:36.373Z,18.8
2018-09-04T04:00:37.774Z,18.9
2018-09-04T04:01:39.197Z,18.9
2018-09-04T04:02:40.630Z,18.7
2018-09-04T04:03:42.057Z,18.7
2018-09-04T04:04:43.525Z,18.8
2018-09-04T04:05:45.017Z,18.7
2018-09-04T04:06:46.452Z,18.7
2018-09-04T04:07:47.844Z,18.7
2018-09-04T04:08:49.266Z,18.7
2018-09-04T04:09:50.692Z,18.6
2018-09-04T04:10:52.010Z,18.7
2018-09-04T04:11:53.451Z,18.7
2018-09-04T04:12:54.975Z,18.6
2018-09-04T04:13:56.413Z,18.6
2018-09-04T04:14:57.808Z,18.6
2018-09-04T04:15:59.339Z,18.5
2018-09-04T04:17:01.093Z,18.6
2018-09-04T04:18:02.333Z,18.5
2018-09-04T04:19:03.759Z,18.5
2018-09-04T04:20:05.247Z,18.5
2018-09-04T04:21:06.663Z,18.6
2018-09-04T04:22:08.098Z,18.5
2018-09-04T04:23:09.522Z,18.6
2018-09-04T04:24:10.972Z,18.5
2018-09-04T04:25:12.482Z,18.6
2018-09-04T04:26:13.967Z,18.6
2018-09-04T04:27:15.389Z,18.6
2018-09-04T04:28:16.888Z,18.6
2018-09-04T04:29:18.324Z,18.6
2018-09-04T04:30:19.830Z,18.6
2018-09-04T04:31:21.226Z,18.6
2018-09-04T04:32:22.697Z,18.7
2018-09-04T04:33:24.121Z,18.6
2018-09-04T04:34:25.537Z,18.7
2018-09-04T04:35:27.223Z,18.7
2018-09-04T04:36:28.657Z,18.7
2018-09-04T04:37:30.089Z,18.7
2018-09-04T04:38:31.508Z,18.8
2018-09-04T04:39:32.941Z,18.8
2018-09-04T04:40:34.420Z,18.7
2018-09-04T04:41:35.888Z,18.7
2018-09-04T04:42:37.328Z,18.8
2018-09-04T04:43:38.844Z,18.7
2018-09-04T04:44:40.655Z,18.7
2018-09-04T04:45:42.046Z,18.7
2018-09-04T04:46:43.465Z,18.7
2018-09-04T04:47:44.966Z,18.6
2018-09-04T04:48:46.375Z,18.7
2018-09-04T04:49:47.781Z,18.6
2018-09-04T04:50:49.206Z,18.7
2018-09-04T04:51:50.912Z,18.6
2018-09-04T04:52:52.368Z,18.6
2018-09-04T04:53:53.797Z,18.6
2018-09-04T04:54:55.186Z,18.7
2018-09-04T04:55:56.622Z,18.7
2018-09-04T04:56:58.016Z,18.7
2018-09-04T04:57:59.480Z,18.6
2018-09-04T04:59:00.976Z,18.7
2018-09-04T05:00:02.487Z,18.7
2018-09-04T05:01:03.910Z,18.6
2018-09-04T05:02:05.315Z,18.7
2018-09-04T05:03:06.721Z,18.7
2018-09-04T05:04:08.193Z,18.7
2018-09-04T05:05:11.153Z,18.7
2018-09-04T05:06:11.705Z,18.7
2018-09-04T05:07:13.154Z,18.7
2018-09-04T05:08:15.161Z,18.7
2018-09-04T05:09:16.556Z,18.6
2018-09-04T05:10:17.955Z,18.7
2018-09-04T05:11:19.393Z,18.7
2018-09-04T05:12:20.797Z,18.7
2018-09-04T05:13:22.263Z,18.7
2018-09-04T05:14:23.945Z,18.7
2018-09-04T05:15:25.357Z,18.7
2018-09-04T05:16:26.849Z,18.7
2018-09-04T05:17:28.314Z,18.7
2018-09-04T05:18:29.747Z,18.8
2018-09-04T05:19:31.161Z,18.7
2018-09-04T05:20:32.567Z,18.7
2018-09-04T05:21:33.975Z,18.8
2018-09-04T05:22:35.499Z,18.8
2018-09-04T05:23:36.892Z,18.7
2018-09-04T05:24:38.349Z,18.9
2018-09-04T05:25:39.819Z,18.7
2018-09-04T05:26:41.292Z,18.8
2018-09-04T05:27:42.706Z,18.7
2018-09-04T05:28:44.128Z,18.7
2018-09-04T05:29:45.693Z,18.8
2018-09-04T05:30:47.127Z,18.7
2018-09-04T05:31:48.553Z,18.8
2018-09-04T05:32:49.987Z,18.8
2018-09-04T05:33:51.379Z,18.8
2018-09-04T05:34:52.779Z,18.8
2018-09-04T05:35:54.311Z,18.7
2018-09-04T05:36:56.219Z,18.7
2018-09-04T05:37:58.133Z,18.7
2018-09-04T05:38:59.598Z,18.7
2018-09-04T05:40:01.033Z,18.7
2018-09-04T05:41:02.572Z,18.8
2018-09-04T05:42:04.045Z,18.6
2018-09-04T05:43:05.501Z,18.7
2018-09-04T05:44:06.939Z,18.7
2018-09-04T05:45:08.424Z,18.7
2018-09-04T05:46:09.995Z,18.7
2018-09-04T05:47:11.487Z,18.7
2018-09-04T05:48:12.969Z,18.7
2018-09-04T05:49:14.372Z,18.8
2018-09-04T05:50:15.820Z,18.7
2018-09-04T05:51:17.262Z,18.7
2018-09-04T05:52:18.705Z,18.8
2018-09-04T05:53:20.188Z,18.9
2018-09-04T05:54:21.613Z,18.9
2018-09-04T05:55:23.072Z,18.9
2018-09-04T05:56:24.487Z,18.9
2018-09-04T05:57:25.958Z,18.9
2018-09-04T05:58:27.434Z,18.9
2018-09-04T05:59:29.093Z,19.0
2018-09-04T06:00:30.544Z,19.0
2018-09-04T06:01:32.010Z,19.1
2018-09-04T06:02:33.410Z,19.1
2018-09-04T06:03:34.890Z,19.1
2018-09-04T06:04:36.312Z,19.1
2018-09-04T06:05:37.707Z,19.1
2018-09-04T06:06:39.173Z,19.1
2018-09-04T06:07:40.646Z,19.2
2018-09-04T06:08:42.135Z,19.2
2018-09-04T06:09:43.562Z,19.2
2018-09-04T06:10:44.985Z,19.2
2018-09-04T06:11:46.407Z,19.2
2018-09-04T06:12:47.969Z,19.2
2018-09-04T06:13:49.343Z,19.2
2018-09-04T06:14:50.754Z,19.2
2018-09-04T06:15:52.149Z,19.2
2018-09-04T06:16:53.644Z,19.2
2018-09-04T06:17:55.053Z,19.2
2018-09-04T06:18:56.476Z,19.3
2018-09-04T06:19:57.964Z,19.2
2018-09-04T06:20:59.392Z,19.3
2018-09-04T06:22:00.872Z,19.3
2018-09-04T06:23:02.360Z,19.3
2018-09-04T06:24:03.946Z,19.3
2018-09-04T06:25:05.349Z,19.3
2018-09-04T06:26:06.751Z,19.3
2018-09-04T06:27:08.195Z,19.3
2018-09-04T06:28:09.628Z,19.3
2018-09-04T06:29:11.051Z,19.4
2018-09-04T06:30:12.490Z,19.4
2018-09-04T06:31:13.887Z,19.4
2018-09-04T06:32:15.282Z,19.5
2018-09-04T06:33:16.746Z,19.5
2018-09-04T06:34:18.151Z,19.5
2018-09-04T06:35:19.545Z,19.5
2018-09-04T06:36:20.974Z,19.6
2018-09-04T06:37:22.381Z,19.7
2018-09-04T06:38:23.873Z,19.7
2018-09-04T06:39:25.368Z,19.8
2018-09-04T06:40:26.759Z,19.8
2018-09-04T06:41:28.156Z,19.8
2018-09-04T06:42:29.560Z,19.8
2018-09-04T06:43:31.006Z,19.9
2018-09-04T06:44:32.448Z,19.9
2018-09-04T06:45:33.835Z,19.9
2018-09-04T06:46:35.425Z,20.1
2018-09-04T06:47:36.737Z,20.0
2018-09-04T06:48:38.167Z,20.1
2018-09-04T06:49:39.565Z,20.1
2018-09-04T06:50:40.968Z,20.1
2018-09-04T06:51:42.448Z,20.2
2018-09-04T06:52:43.871Z,20.3
2018-09-04T06:53:45.301Z,20.3
2018-09-04T06:54:46.812Z,20.3
2018-09-04T06:55:48.049Z,20.4
2018-09-04T06:56:49.492Z,20.4
2018-09-04T06:57:50.900Z,20.4
2018-09-04T06:58:52.386Z,20.5
2018-09-04T06:59:53.852Z,20.6
2018-09-04T07:00:55.324Z,20.5
2018-09-04T07:01:56.706Z,20.6
2018-09-04T07:02:58.178Z,20.5
2018-09-04T07:03:59.673Z,20.6
2018-09-04T07:05:01.115Z,20.7
2018-09-04T07:06:02.571Z,20.6
2018-09-04T07:07:04.002Z,20.7
2018-09-04T07:08:05.539Z,20.7
2018-09-04T07:09:07.046Z,20.8
2018-09-04T07:10:08.529Z,20.8
2018-09-04T07:11:10.031Z,20.8
2018-09-04T07:12:11.461Z,20.8
2018-09-04T07:13:12.874Z,20.9
2018-09-04T07:14:14.270Z,20.8
2018-09-04T07:15:15.988Z,20.9
2018-09-04T07:16:17.439Z,20.9
2018-09-04T07:17:18.887Z,20.9
2018-09-04T07:18:20.330Z,21.0
2018-09-04T07:19:21.732Z,21.0
2018-09-04T07:20:23.159Z,21.1
2018-09-04T07:21:24.557Z,21.1
2018-09-04T07:22:25.995Z,21.1
2018-09-04T07:23:27.508Z,21.1
2018-09-04T07:24:28.912Z,21.2
2018-09-04T07:25:30.415Z,21.3
2018-09-04T07:26:31.890Z,21.3
2018-09-04T07:27:33.304Z,21.3
2018-09-04T07:28:34.723Z,21.2
2018-09-04T07:29:36.220Z,21.2
2018-09-04T07:30:37.636Z,21.3
2018-09-04T07:31:39.139Z,21.3
2018-09-04T07:32:40.616Z,21.3
2018-09-04T07:33:42.098Z,21.3
2018-09-04T07:34:43.497Z,21.3
2018-09-04T07:35:44.938Z,21.4
2018-09-04T07:36:46.393Z,21.4
2018-09-04T07:37:47.800Z,21.4
2018-09-04T07:38:49.282Z,21.4
2018-09-04T07:39:50.681Z,21.4
2018-09-04T07:40:52.131Z,21.4
2018-09-04T07:41:53.572Z,21.5
2018-09-04T07:42:55.061Z,21.5
2018-09-04T07:43:56.480Z,21.5
2018-09-04T07:44:57.878Z,21.6
2018-09-04T07:45:59.322Z,21.7
2018-09-04T07:47:00.761Z,21.6
2018-09-04T07:48:02.208Z,21.7
2018-09-04T07:49:03.614Z,21.8
2018-09-04T07:50:05.111Z,21.8
2018-09-04T07:51:06.645Z,21.7
2018-09-04T07:52:08.066Z,21.8
2018-09-04T07:53:09.557Z,21.8
2018-09-04T07:54:11.159Z,21.9
2018-09-04T07:55:12.788Z,21.9
2018-09-04T07:56:14.261Z,22.0
2018-09-04T07:57:15.773Z,22.0
2018-09-04T07:58:17.220Z,22.0
2018-09-04T07:59:18.698Z,22.0
2018-09-04T08:00:20.180Z,22.1
2018-09-04T08:01:21.634Z,22.1
2018-09-04T08:02:23.087Z,22.1
2018-09-04T08:03:24.993Z,22.2
2018-09-04T08:04:27.300Z,22.2
2018-09-04T08:05:28.950Z,22.2
2018-09-04T08:06:30.421Z,22.2
2018-09-04T08:07:31.828Z,22.2
2018-09-04T08:08:33.305Z,22.2
2018-09-04T08:09:34.849Z,22.2
2018-09-04T08:10:36.330Z,22.3
2018-09-04T08:11:37.736Z,22.4
2018-09-04T08:12:39.151Z,22.4
2018-09-04T08:13:40.608Z,22.5
2018-09-04T08:14:42.059Z,22.4
2018-09-04T08:15:43.844Z,22.4
2018-09-04T08:16:45.251Z,22.4
2018-09-04T08:17:46.744Z,22.3
2018-09-04T08:18:48.121Z,22.3
2018-09-04T08:19:49.639Z,22.4
2018-09-04T08:20:51.068Z,22.5
2018-09-04T08:21:52.437Z,22.6
2018-09-04T08:22:53.890Z,22.7
2018-09-04T08:23:55.287Z,22.7
2018-09-04T08:24:56.692Z,22.7
2018-09-04T08:25:58.113Z,22.7
2018-09-04T08:26:59.822Z,22.7
2018-09-04T08:28:01.265Z,22.7
2018-09-04T08:29:02.753Z,22.7
2018-09-04T08:30:04.233Z,22.6
2018-09-04T08:31:05.774Z,22.7
2018-09-04T08:32:07.194Z,22.7
2018-09-04T08:33:08.671Z,22.7
2018-09-04T08:34:10.008Z,22.6
2018-09-04T08:35:11.422Z,22.6
2018-09-04T08:36:12.838Z,22.6
2018-09-04T08:37:14.399Z,22.7
2018-09-04T08:38:15.856Z,22.7
2018-09-04T08:39:17.385Z,22.8
2018-09-04T08:40:18.890Z,22.8
2018-09-04T08:41:21.857Z,22.8
2018-09-04T08:42:23.356Z,22.6
2018-09-04T08:43:24.909Z,22.7
2018-09-04T08:44:26.377Z,22.5
2018-09-04T08:45:27.835Z,22.4
2018-09-04T08:46:29.267Z,22.4
2018-09-04T08:47:30.734Z,22.6
2018-09-04T08:48:32.130Z,22.7
2018-09-04T08:49:33.568Z,22.9
2018-09-04T08:50:35.190Z,22.8
2018-09-04T08:51:36.511Z,22.9
2018-09-04T08:52:38.006Z,23.0
2018-09-04T08:53:39.567Z,23.0
2018-09-04T08:54:40.917Z,23.0
2018-09-04T08:55:42.394Z,23.1
2018-09-04T08:56:43.974Z,23.1
2018-09-04T08:57:45.438Z,23.1
2018-09-04T08:58:46.943Z,23.3
2018-09-04T08:59:48.406Z,23.5
2018-09-04T09:00:50.004Z,23.8
2018-09-04T09:01:51.345Z,23.9
2018-09-04T09:02:52.818Z,24.0
2018-09-04T09:03:54.499Z,24.2
2018-09-04T09:04:55.845Z,24.3
2018-09-04T09:05:57.327Z,24.6
2018-09-04T09:06:58.825Z,24.7
2018-09-04T09:08:00.246Z,24.9
2018-09-04T09:09:01.699Z,25.0
2018-09-04T09:10:03.236Z,25.2
2018-09-04T09:11:04.573Z,25.3
2018-09-04T09:12:06.001Z,25.4
2018-09-04T09:13:07.453Z,25.5
2018-09-04T09:14:08.890Z,25.6
2018-09-04T09:15:10.355Z,25.7
2018-09-04T09:16:11.794Z,25.6
2018-09-04T09:17:15.001Z,25.7
2018-09-04T09:18:16.260Z,26.1
2018-09-04T09:19:17.692Z,26.0
2018-09-04T09:20:19.089Z,26.2
2018-09-04T09:21:20.522Z,26.1
2018-09-04T09:22:22.116Z,26.2
2018-09-04T09:23:23.739Z,25.9
2018-09-04T09:24:25.148Z,25.9
2018-09-04T09:25:26.694Z,25.9
2018-09-04T09:26:28.118Z,25.8
2018-09-04T09:27:29.571Z,25.9
2018-09-04T09:28:30.979Z,25.9
2018-09-04T09:29:32.388Z,25.9
2018-09-04T09:30:33.800Z,26.1
2018-09-04T09:31:35.204Z,26.1
2018-09-04T09:32:36.617Z,26.1
2018-09-04T09:33:38.089Z,25.9
2018-09-04T09:34:39.593Z,25.9
2018-09-04T09:35:41.207Z,26.0
2018-09-04T09:36:42.781Z,26.1
2018-09-04T09:37:44.137Z,26.1
2018-09-04T09:38:45.795Z,26.4
2018-09-04T09:39:47.330Z,26.5
2018-09-04T09:40:48.771Z,26.5
2018-09-04T09:41:50.174Z,26.3
2018-09-04T09:42:51.643Z,26.2
2018-09-04T09:43:53.086Z,26.1
2018-09-04T09:44:54.528Z,26.1
2018-09-04T09:45:56.040Z,26.0
2018-09-04T09:46:57.615Z,26.0
2018-09-04T09:47:59.083Z,25.9
2018-09-04T09:49:00.669Z,25.9
2018-09-04T09:50:02.215Z,25.9
2018-09-04T09:51:03.791Z,25.9
2018-09-04T09:52:05.537Z,25.9
2018-09-04T09:53:07.057Z,26.0
2018-09-04T09:54:08.593Z,26.0
2018-09-04T09:55:10.000Z,26.1
2018-09-04T09:56:11.453Z,26.1
2018-09-04T09:57:13.115Z,26.0
2018-09-04T09:58:14.615Z,26.0
2018-09-04T09:59:16.116Z,25.9
2018-09-04T10:00:17.722Z,25.8
2018-09-04T10:01:19.312Z,25.7
2018-09-04T10:02:21.003Z,25.9
2018-09-04T10:03:22.215Z,25.9
2018-09-04T10:04:23.736Z,26.0
2018-09-04T10:05:25.137Z,26.0
2018-09-04T10:06:26.542Z,26.1
2018-09-04T10:07:28.106Z,26.2
2018-09-04T10:08:29.613Z,26.2
2018-09-04T10:09:31.060Z,26.3
2018-09-04T10:10:32.512Z,26.4
2018-09-04T10:11:33.877Z,26.3
2018-09-04T10:12:35.360Z,26.4
2018-09-04T10:13:36.816Z,26.4
2018-09-04T10:14:38.252Z,26.3
2018-09-04T10:15:39.660Z,26.5
2018-09-04T10:16:41.147Z,26.7
2018-09-04T10:17:42.600Z,26.8
2018-09-04T10:18:44.001Z,26.8
2018-09-04T10:19:45.469Z,26.8
2018-09-04T10:20:46.875Z,26.9
2018-09-04T10:21:48.320Z,26.9
2018-09-04T10:22:49.815Z,27.0
2018-09-04T10:23:51.283Z,27.0
2018-09-04T10:24:52.755Z,27.1
2018-09-04T10:25:54.210Z,27.3
2018-09-04T10:26:55.626Z,27.2
2018-09-04T10:27:57.024Z,27.4
2018-09-04T10:28:58.498Z,27.5
2018-09-04T10:29:59.904Z,27.6
2018-09-04T10:31:01.369Z,27.7
2018-09-04T10:32:02.836Z,27.7
2018-09-04T10:33:04.203Z,27.6
2018-09-04T10:34:05.667Z,27.6
2018-09-04T10:35:07.150Z,27.4
2018-09-04T10:36:08.599Z,27.7
2018-09-04T10:37:10.084Z,27.9
2018-09-04T10:38:11.634Z,27.9
2018-09-04T10:39:13.141Z,28.1
2018-09-04T10:40:14.597Z,28.3
2018-09-04T10:41:16.003Z,28.5
2018-09-04T10:42:17.404Z,28.6
2018-09-04T10:43:18.805Z,28.5
2018-09-04T10:44:20.300Z,28.7
2018-09-04T10:45:21.788Z,28.7
2018-09-04T10:46:23.288Z,28.9
2018-09-04T10:47:24.792Z,29.0
2018-09-04T10:48:26.255Z,29.0
2018-09-04T10:49:27.697Z,29.1
2018-09-04T10:50:29.483Z,29.1
2018-09-04T10:51:30.927Z,28.9
2018-09-04T10:52:32.372Z,29.0
2018-09-04T10:53:33.822Z,29.1
2018-09-04T10:54:35.285Z,29.2
2018-09-04T10:55:36.761Z,29.5
2018-09-04T10:56:38.196Z,29.4
2018-09-04T10:57:39.690Z,29.4
2018-09-04T10:58:41.109Z,29.5
2018-09-04T10:59:42.538Z,29.6
2018-09-04T11:00:44.020Z,29.7
2018-09-04T11:01:45.423Z,29.7
2018-09-04T11:02:46.916Z,29.6
2018-09-04T11:03:48.370Z,29.8
2018-09-04T11:04:49.787Z,30.0
2018-09-04T11:05:51.238Z,30.1
2018-09-04T11:06:52.664Z,29.9
2018-09-04T11:07:54.111Z,29.7
2018-09-04T11:08:55.590Z,29.7
2018-09-04T11:09:57.148Z,29.5
2018-09-04T11:10:58.429Z,29.5
2018-09-04T11:11:59.893Z,29.5
2018-09-04T11:13:01.351Z,29.4
2018-09-04T11:14:02.774Z,29.2
2018-09-04T11:15:04.170Z,29.1
2018-09-04T11:16:05.683Z,29.1
2018-09-04T11:17:07.089Z,29.0
2018-09-04T11:18:08.554Z,28.9
2018-09-04T11:19:09.953Z,28.7
2018-09-04T11:20:11.404Z,28.6
2018-09-04T11:21:12.804Z,28.4
2018-09-04T11:22:14.218Z,28.3
2018-09-04T11:23:15.636Z,28.1
2018-09-04T11:24:17.115Z,28.0
2018-09-04T11:25:18.584Z,27.9
2018-09-04T11:26:19.992Z,27.8
2018-09-04T11:27:21.434Z,27.7
2018-09-04T11:28:22.841Z,27.6
2018-09-04T11:29:24.304Z,27.4
2018-09-04T11:30:25.775Z,27.5
2018-09-04T11:31:27.222Z,27.4
2018-09-04T11:32:28.667Z,27.6
2018-09-04T11:33:30.062Z,27.7
2018-09-04T11:34:31.562Z,27.9
2018-09-04T11:35:33.089Z,28.2
2018-09-04T11:36:34.555Z,28.5
2018-09-04T11:37:35.989Z,28.5
2018-09-04T11:38:37.457Z,28.4
2018-09-04T11:39:38.860Z,28.4
2018-09-04T11:40:40.296Z,28.1
2018-09-04T11:41:41.707Z,28.1
2018-09-04T11:42:43.119Z,28.2
2018-09-04T11:43:44.538Z,28.1
2018-09-04T11:44:45.967Z,28.2
2018-09-04T11:45:47.370Z,28.0
2018-09-04T11:46:48.834Z,27.8
2018-09-04T11:47:50.235Z,27.6
2018-09-04T11:48:51.691Z,27.6
2018-09-04T11:49:53.149Z,27.5
2018-09-04T11:50:54.627Z,27.5
2018-09-04T11:51:56.157Z,27.5
2018-09-04T11:52:57.642Z,27.3
2018-09-04T11:53:59.128Z,27.4
2018-09-04T11:55:00.542Z,27.3
2018-09-04T11:56:02.011Z,27.3
2018-09-04T11:57:03.445Z,27.4
2018-09-04T11:58:04.910Z,27.4
2018-09-04T11:59:06.319Z,27.4
2018-09-04T12:00:07.768Z,27.5
2018-09-04T12:01:09.169Z,27.8
2018-09-04T12:02:10.666Z,28.0
2018-09-04T12:03:12.044Z,28.1
2018-09-04T12:04:13.478Z,28.2
2018-09-04T12:05:14.880Z,28.0
2018-09-04T12:06:16.287Z,27.9
2018-09-04T12:07:17.759Z,27.7
2018-09-04T12:08:19.176Z,27.7
2018-09-04T12:09:20.600Z,27.7
2018-09-04T12:10:22.005Z,27.7
2018-09-04T12:11:23.407Z,27.9
2018-09-04T12:12:24.948Z,28.3
2018-09-04T12:13:26.295Z,28.6
2018-09-04T12:14:27.742Z,28.9
2018-09-04T12:15:29.150Z,29.2
2018-09-04T12:16:30.586Z,29.4
2018-09-04T12:17:32.025Z,29.7
2018-09-04T12:18:33.419Z,29.9
2018-09-04T12:19:34.836Z,30.1
2018-09-04T12:20:36.307Z,30.4
2018-09-04T12:21:37.679Z,30.1
2018-09-04T12:22:39.078Z,29.9
2018-09-04T12:23:40.540Z,30.1
2018-09-04T12:24:41.977Z,30.3
2018-09-04T12:25:43.417Z,30.6
2018-09-04T12:26:44.909Z,30.8
2018-09-04T12:27:46.378Z,31.1
2018-09-04T12:28:47.797Z,31.0
2018-09-04T12:29:49.246Z,31.1
2018-09-04T12:30:50.674Z,31.2
2018-09-04T12:31:52.090Z,31.2
2018-09-04T12:32:53.524Z,31.2
2018-09-04T12:33:55.048Z,31.2
2018-09-04T12:34:56.410Z,31.3
2018-09-04T12:35:57.882Z,31.4
2018-09-04T12:36:59.284Z,31.4
2018-09-04T12:38:00.710Z,31.4
2018-09-04T12:39:02.158Z,31.6
2018-09-04T12:40:03.615Z,31.5
2018-09-04T12:41:05.090Z,31.5
2018-09-04T12:42:06.540Z,31.6
2018-09-04T12:43:07.999Z,31.5
2018-09-04T12:44:09.505Z,31.6
2018-09-04T12:45:10.904Z,31.5
2018-09-04T12:46:12.312Z,31.6
2018-09-04T12:47:13.711Z,31.7
2018-09-04T12:48:15.196Z,31.8
2018-09-04T12:49:16.597Z,31.9
2018-09-04T12:50:18.071Z,31.8
2018-09-04T12:51:19.469Z,31.6
2018-09-04T12:52:20.922Z,31.5
2018-09-04T12:53:22.356Z,31.7
2018-09-04T12:54:23.824Z,31.9
2018-09-04T12:55:25.242Z,32.0
2018-09-04T12:56:26.711Z,32.0
2018-09-04T12:57:28.179Z,31.8
2018-09-04T12:58:29.580Z,31.6
2018-09-04T12:59:31.032Z,31.3
2018-09-04T13:00:32.464Z,31.2
2018-09-04T13:01:33.926Z,31.3
2018-09-04T13:02:35.328Z,31.5
2018-09-04T13:03:36.735Z,31.5
2018-09-04T13:04:38.201Z,31.6
2018-09-04T13:05:39.651Z,31.7
2018-09-04T13:06:41.062Z,31.8
2018-09-04T13:07:42.498Z,31.8
2018-09-04T13:08:43.948Z,31.9
2018-09-04T13:09:45.394Z,32.1
2018-09-04T13:10:46.894Z,32.0
2018-09-04T13:11:48.355Z,32.1
2018-09-04T13:12:49.788Z,32.0
2018-09-04T13:13:51.251Z,32.0
2018-09-04T13:14:52.619Z,31.8
2018-09-04T13:15:54.040Z,31.7
2018-09-04T13:16:55.547Z,31.5
2018-09-04T13:17:57.083Z,31.5
2018-09-04T13:18:58.481Z,31.3
2018-09-04T13:19:59.896Z,31.2
2018-09-04T13:21:01.334Z,31.2
2018-09-04T13:22:02.853Z,31.1
2018-09-04T13:23:04.249Z,30.8
2018-09-04T13:24:05.684Z,30.8
2018-09-04T13:25:07.106Z,31.0
2018-09-04T13:26:08.573Z,31.1
2018-09-04T13:27:09.997Z,31.1
2018-09-04T13:28:11.400Z,31.2
2018-09-04T13:29:12.874Z,31.3
2018-09-04T13:30:14.247Z,31.5
2018-09-04T13:31:15.693Z,31.5
2018-09-04T13:32:17.193Z,31.5
2018-09-04T13:33:18.614Z,31.5
2018-09-04T13:34:20.167Z,31.2
2018-09-04T13:35:21.538Z,31.1
2018-09-04T13:36:23.033Z,31.1
2018-09-04T13:37:24.459Z,30.8